createdAt,value
2023-01-11T00:00:56.765Z,3.27
2023-01-11T00:03:25.932Z,3.18
2023-01-11T00:05:58.052Z,2.81
2023-01-11T00:08:29.034Z,3.20
2023-01-11T00:10:57.624Z,3.19
2023-01-11T00:13:26.425Z,3.18
2023-01-11T00:15:54.922Z,3.22
2023-01-11T00:18:24.194Z,3.26
2023-01-11T00:20:52.497Z,3.20
2023-01-11T00:23:20.871Z,3.16
2023-01-11T00:25:50.670Z,3.10
2023-01-11T00:28:19.039Z,2.83
2023-01-11T00:30:49.830Z,3.07
2023-01-11T00:33:18.125Z,3.05
2023-01-11T00:35:46.525Z,3.03
2023-01-11T00:38:34.874Z,3.01
2023-01-11T00:41:24.900Z,2.96
2023-01-11T00:44:10.838Z,2.97
2023-01-11T00:46:56.944Z,2.96
2023-01-11T00:49:25.639Z,2.90
2023-01-11T00:51:54.121Z,2.98
2023-01-11T00:54:22.477Z,3.05
2023-01-11T00:56:52.232Z,3.14
2023-01-11T00:59:20.640Z,2.98
2023-01-11T01:01:49.009Z,2.98
2023-01-11T01:04:17.529Z,2.91
2023-01-11T01:06:45.931Z,2.90
2023-01-11T01:09:14.362Z,2.85
2023-01-11T01:11:42.674Z,3.05
2023-01-11T01:14:28.705Z,3.07
2023-01-11T01:16:59.326Z,2.92
2023-01-11T01:19:28.889Z,3.08
2023-01-11T01:21:57.775Z,3.02
2023-01-11T01:24:28.339Z,2.89
2023-01-11T01:26:56.860Z,2.97
2023-01-11T01:29:27.381Z,3.02
2023-01-11T01:31:55.927Z,3.05
2023-01-11T01:34:24.353Z,3.06
2023-01-11T01:36:52.765Z,3.03
2023-01-11T01:39:21.055Z,3.10
2023-01-11T01:41:49.471Z,3.13
2023-01-11T01:44:54.660Z,3.15
2023-01-11T01:47:27.821Z,3.03
2023-01-11T01:49:57.568Z,3.07
2023-01-11T01:52:29.359Z,3.04
2023-01-11T01:55:00.973Z,3.02
2023-01-11T01:57:34.229Z,2.97
2023-01-11T02:00:08.333Z,2.02
2023-01-11T02:02:39.418Z,2.92
2023-01-11T02:05:10.009Z,2.89
2023-01-11T02:07:41.228Z,2.70
2023-01-11T02:10:12.082Z,2.04
2023-01-11T02:12:43.442Z,2.76
2023-01-11T02:15:14.687Z,2.92
2023-01-11T02:17:43.117Z,2.89
2023-01-11T02:20:27.819Z,2.72
2023-01-11T02:23:46.757Z,2.86
2023-01-11T02:26:59.159Z,2.81
2023-01-11T02:29:40.487Z,2.77
2023-01-11T02:32:22.210Z,2.54
2023-01-11T02:35:01.677Z,2.83
2023-01-11T02:37:38.782Z,2.89
2023-01-11T02:40:17.181Z,2.90
2023-01-11T02:43:09.426Z,2.87
2023-01-11T02:45:49.813Z,1.89
2023-01-11T02:48:25.560Z,2.76
2023-01-11T02:51:00.234Z,2.57
2023-01-11T02:53:33.907Z,2.67
2023-01-11T02:56:07.200Z,2.67
2023-01-11T02:58:40.920Z,2.68
2023-01-11T03:01:11.138Z,2.70
2023-01-11T03:03:39.541Z,2.71
2023-01-11T03:06:15.235Z,2.69
2023-01-11T03:09:10.276Z,2.65
2023-01-11T03:12:11.069Z,2.39
2023-01-11T03:14:50.394Z,2.40
2023-01-11T03:17:35.890Z,2.58
2023-01-11T03:20:10.833Z,2.56
2023-01-11T03:22:51.371Z,2.43
2023-01-11T03:25:23.716Z,2.43
2023-01-11T03:27:57.117Z,2.66
2023-01-11T03:30:32.647Z,2.70
2023-01-11T03:33:06.354Z,2.67
2023-01-11T03:35:42.916Z,2.64
2023-01-11T03:38:19.419Z,2.66
2023-01-11T03:40:52.854Z,2.68
2023-01-11T03:43:25.517Z,2.65
2023-01-11T03:45:57.611Z,2.47
2023-01-11T03:48:32.682Z,2.64
2023-01-11T03:51:03.045Z,2.61
2023-01-11T03:53:34.773Z,2.57
2023-01-11T03:56:08.043Z,2.65
2023-01-11T03:58:36.814Z,2.68
2023-01-11T04:01:05.680Z,2.64
2023-01-11T04:03:35.618Z,2.62
2023-01-11T04:06:04.776Z,2.46
2023-01-11T04:08:33.052Z,2.53
2023-01-11T04:11:01.432Z,2.56
2023-01-11T04:13:29.798Z,2.58
2023-01-11T04:15:58.283Z,2.58
2023-01-11T04:18:26.871Z,2.37
2023-01-11T04:20:56.879Z,2.53
2023-01-11T04:23:26.313Z,2.50
2023-01-11T04:25:54.711Z,2.52
2023-01-11T04:28:23.716Z,2.49
2023-01-11T04:30:52.658Z,2.46
2023-01-11T04:33:21.088Z,2.48
2023-01-11T04:35:50.117Z,2.48
2023-01-11T04:38:19.958Z,2.42
2023-01-11T04:40:49.428Z,2.34
2023-01-11T04:43:16.780Z,2.36
2023-01-11T04:45:45.301Z,2.39
2023-01-11T04:48:13.685Z,2.36
2023-01-11T04:50:42.090Z,2.34
2023-01-11T04:53:10.415Z,2.33
2023-01-11T04:55:40.390Z,2.30
2023-01-11T04:58:08.722Z,2.31
2023-01-11T05:00:37.098Z,2.30
2023-01-11T05:03:05.594Z,2.28
2023-01-11T05:05:34.176Z,2.17
2023-01-11T05:08:02.490Z,3.38
2023-01-11T05:10:30.779Z,2.81
2023-01-11T05:13:00.546Z,2.56
2023-01-11T05:15:28.919Z,2.43
2023-01-11T05:17:57.305Z,2.38
2023-01-11T05:20:25.666Z,2.35
2023-01-11T05:22:53.996Z,2.30
2023-01-11T05:25:22.257Z,2.25
2023-01-11T05:27:50.795Z,2.25
2023-01-11T05:30:20.880Z,2.24
2023-01-11T05:32:49.370Z,2.28
2023-01-11T05:35:17.898Z,2.29
2023-01-11T05:37:46.347Z,2.25
2023-01-11T05:40:15.186Z,2.21
2023-01-11T05:42:43.600Z,2.14
2023-01-11T05:45:29.343Z,2.11
2023-01-11T05:47:59.629Z,2.06
2023-01-11T05:50:28.062Z,2.03
2023-01-11T05:52:56.476Z,1.99
2023-01-11T05:55:24.825Z,1.94
2023-01-11T05:57:53.253Z,1.91
2023-01-11T06:00:22.293Z,1.87
2023-01-11T06:02:51.079Z,1.87
2023-01-11T06:05:20.837Z,1.84
2023-01-11T06:07:49.161Z,1.81
2023-01-11T06:10:17.958Z,1.80
2023-01-11T06:12:46.308Z,1.82
2023-01-11T06:15:14.759Z,1.88
2023-01-11T06:17:43.230Z,1.90
2023-01-11T06:20:13.243Z,1.93
2023-01-11T06:22:43.023Z,1.90
2023-01-11T06:25:11.516Z,1.90
2023-01-11T06:27:39.861Z,1.94
2023-01-11T06:30:09.463Z,1.97
2023-01-11T06:32:37.878Z,1.97
2023-01-11T06:35:07.029Z,1.93
2023-01-11T06:37:35.361Z,1.90
2023-01-11T06:40:05.623Z,1.92
2023-01-11T06:42:33.964Z,1.93
2023-01-11T06:45:02.375Z,1.96
2023-01-11T06:47:30.713Z,1.98
2023-01-11T06:49:59.046Z,1.99
2023-01-11T06:52:27.505Z,2.03
2023-01-11T06:54:55.774Z,2.08
2023-01-11T06:57:25.559Z,2.13
2023-01-11T06:59:53.834Z,2.15
2023-01-11T07:02:22.237Z,2.17
2023-01-11T07:04:50.650Z,2.23
2023-01-11T07:07:19.013Z,2.24
2023-01-11T07:09:47.375Z,2.17
2023-01-11T07:12:15.762Z,2.18
2023-01-11T07:14:45.459Z,2.22
2023-01-11T07:17:14.011Z,2.18
2023-01-11T07:19:42.363Z,2.14
2023-01-11T07:22:10.787Z,2.16
2023-01-11T07:24:39.116Z,2.18
2023-01-11T07:27:07.524Z,2.14
2023-01-11T07:29:35.873Z,2.18
2023-01-11T07:32:06.111Z,2.18
2023-01-11T07:34:34.476Z,2.18
2023-01-11T07:37:02.893Z,2.21
2023-01-11T07:39:43.248Z,2.21
2023-01-11T07:42:30.121Z,2.27
2023-01-11T07:44:58.531Z,2.29
2023-01-11T07:47:28.300Z,2.34
2023-01-11T07:49:56.782Z,2.37
2023-01-11T07:52:25.146Z,2.43
2023-01-11T07:54:53.605Z,2.47
2023-01-11T07:57:21.995Z,2.48
2023-01-11T07:59:50.441Z,2.57
2023-01-11T08:02:18.833Z,2.66
2023-01-11T08:04:48.725Z,2.82
2023-01-11T08:07:17.109Z,3.04
2023-01-11T08:09:46.872Z,3.40
2023-01-11T08:12:32.575Z,3.72
2023-01-11T08:15:00.899Z,4.01
2023-01-11T08:17:29.297Z,4.24
2023-01-11T08:19:59.106Z,4.41
2023-01-11T08:22:27.451Z,4.49
2023-01-11T08:24:55.792Z,4.57
2023-01-11T08:27:24.535Z,4.60
2023-01-11T08:29:52.972Z,4.61
2023-01-11T08:32:21.292Z,4.72
2023-01-11T08:34:49.761Z,4.84
2023-01-11T08:37:19.558Z,4.95
2023-01-11T08:39:48.924Z,5.13
2023-01-11T08:42:18.705Z,5.33
2023-01-11T08:44:47.123Z,5.48
2023-01-11T08:47:15.541Z,5.61
2023-01-11T08:49:44.172Z,5.74
2023-01-11T08:52:14.883Z,5.99
2023-01-11T08:54:44.783Z,6.20
2023-01-11T08:57:13.118Z,6.41
2023-01-11T08:59:41.526Z,6.57
2023-01-11T09:02:11.277Z,6.54
2023-01-11T09:04:39.660Z,6.78
2023-01-11T09:07:08.007Z,6.77
2023-01-11T09:09:36.427Z,6.87
2023-01-11T09:12:06.925Z,6.90
2023-01-11T09:14:35.567Z,6.89
2023-01-11T09:17:04.039Z,6.92
2023-01-11T09:19:33.580Z,6.93
2023-01-11T09:22:03.122Z,6.99
2023-01-11T09:24:32.013Z,7.02
2023-01-11T09:27:01.243Z,7.04
2023-01-11T09:29:31.110Z,7.14
2023-01-11T09:31:59.484Z,7.20
2023-01-11T09:34:28.126Z,7.31
2023-01-11T09:37:00.708Z,7.31
2023-01-11T09:39:29.343Z,7.44
2023-01-11T09:42:32.452Z,7.54
2023-01-11T09:45:09.541Z,7.65
2023-01-11T09:47:42.917Z,7.70
2023-01-11T09:50:16.698Z,7.74
2023-01-11T09:52:47.504Z,7.79
2023-01-11T09:55:24.787Z,7.87
2023-01-11T09:58:35.091Z,7.98
2023-01-11T10:01:12.551Z,8.09
2023-01-11T10:04:24.093Z,8.16
2023-01-11T10:07:13.072Z,8.07
2023-01-11T10:18:29.211Z,8.80
2023-01-11T10:19:18.636Z,9.07
2023-01-11T10:21:47.483Z,8.70
2023-01-11T10:24:23.000Z,9.48
2023-01-11T10:26:56.866Z,9.59
2023-01-11T10:29:39.930Z,9.50
2023-01-11T10:32:34.777Z,9.69
2023-01-11T10:35:41.404Z,9.78
2023-01-11T10:38:42.742Z,9.94
2023-01-11T10:41:26.205Z,10.11
2023-01-11T10:44:06.538Z,9.44
2023-01-11T10:46:40.103Z,9.47
2023-01-11T10:49:37.778Z,10.42
2023-01-11T10:52:29.328Z,10.51
2023-01-11T10:54:58.998Z,10.61
2023-01-11T10:58:01.589Z,10.80
2023-01-11T11:00:39.859Z,10.98
2023-01-11T11:03:44.813Z,11.12
2023-01-11T11:06:23.062Z,10.90
2023-01-11T11:08:58.730Z,11.37
2023-01-11T11:11:35.204Z,11.60
2023-01-11T11:14:10.560Z,10.96
2023-01-11T11:16:49.115Z,10.96
2023-01-11T11:19:21.200Z,11.85
2023-01-11T11:21:52.550Z,11.96
2023-01-11T11:24:27.915Z,12.08
2023-01-11T11:27:03.331Z,12.07
2023-01-11T11:29:31.850Z,12.31
2023-01-11T11:32:02.266Z,12.45
2023-01-11T11:34:31.199Z,12.54
2023-01-11T11:37:01.746Z,12.66
2023-01-11T11:39:32.685Z,10.42
2023-01-11T11:42:07.527Z,12.81
2023-01-11T11:44:36.614Z,12.86
2023-01-11T11:47:07.502Z,12.18
2023-01-11T11:49:38.495Z,12.97
2023-01-11T11:52:08.544Z,13.02
2023-01-11T11:54:43.448Z,12.92
2023-01-11T11:57:18.176Z,13.06
2023-01-11T11:59:49.209Z,13.20
2023-01-11T12:02:26.448Z,13.13
2023-01-11T12:04:56.181Z,13.34
2023-01-11T12:07:27.972Z,13.44
2023-01-11T12:10:01.451Z,13.44
2023-01-11T12:12:29.878Z,13.70
2023-01-11T12:15:19.571Z,13.82
2023-01-11T12:17:48.909Z,13.89
2023-01-11T12:20:32.334Z,13.98
2023-01-11T12:23:21.777Z,14.01
2023-01-11T12:26:06.749Z,14.08
2023-01-11T12:28:55.599Z,14.14
2023-01-11T12:31:32.681Z,14.19
2023-01-11T12:34:08.811Z,13.50
2023-01-11T12:36:44.808Z,14.30
2023-01-11T12:39:24.444Z,14.34
2023-01-11T12:42:04.671Z,14.37
2023-01-11T12:44:55.963Z,14.35
2023-01-11T12:47:56.345Z,14.30
2023-01-11T12:50:27.720Z,14.26
2023-01-11T12:53:18.709Z,14.23
2023-01-11T12:56:06.426Z,14.21
2023-01-11T12:58:43.971Z,14.02
2023-01-11T13:01:34.839Z,14.11
2023-01-11T13:04:50.126Z,13.85
2023-01-11T13:07:34.015Z,13.99
2023-01-11T13:10:17.631Z,13.99
2023-01-11T13:12:51.081Z,13.99
2023-01-11T13:15:34.503Z,13.99
2023-01-11T13:18:13.096Z,13.86
2023-01-11T13:21:00.721Z,14.02
2023-01-11T13:23:39.352Z,14.01
2023-01-11T13:26:20.434Z,14.03
2023-01-11T13:28:55.168Z,14.04
2023-01-11T13:31:26.206Z,14.07
2023-01-11T13:34:00.765Z,13.95
2023-01-11T13:36:37.533Z,13.96
2023-01-11T13:39:15.356Z,13.99
2023-01-11T13:41:49.545Z,14.14
2023-01-11T13:44:23.881Z,14.09
2023-01-11T13:47:03.994Z,14.08
2023-01-11T13:49:53.182Z,14.06
2023-01-11T13:52:29.137Z,13.80
2023-01-11T13:55:02.115Z,13.78
2023-01-11T13:57:41.881Z,13.90
2023-01-11T14:00:22.189Z,13.85
2023-01-11T14:02:57.169Z,13.79
2023-01-11T14:05:28.158Z,13.70
2023-01-11T14:08:23.421Z,13.54
2023-01-11T14:11:01.251Z,13.64
2023-01-11T14:14:05.048Z,13.37
2023-01-11T14:16:44.249Z,13.35
2023-01-11T14:19:23.626Z,12.64
2023-01-11T14:22:12.667Z,13.41
2023-01-11T14:24:47.909Z,12.43
2023-01-11T14:27:43.715Z,13.30
2023-01-11T14:30:27.160Z,13.06
2023-01-11T14:33:28.485Z,13.20
2023-01-11T14:36:39.358Z,13.11
2023-01-11T14:39:24.795Z,12.81
2023-01-11T14:42:31.471Z,12.98
2023-01-11T14:45:17.183Z,12.88
2023-01-11T14:47:57.286Z,12.82
2023-01-11T14:50:35.090Z,12.76
2023-01-11T14:53:07.649Z,12.74
2023-01-11T14:55:45.132Z,12.74
2023-01-11T14:58:26.274Z,12.74
2023-01-11T15:01:11.762Z,12.72
2023-01-11T15:03:57.899Z,12.56
2023-01-11T15:06:26.454Z,12.63
2023-01-11T15:08:57.243Z,12.63
2023-01-11T15:11:32.877Z,12.61
2023-01-11T15:14:06.932Z,12.59
2023-01-11T15:16:55.265Z,12.54
2023-01-11T15:19:33.515Z,12.50
2023-01-11T15:22:06.052Z,12.34
2023-01-11T15:24:39.642Z,12.47
2023-01-11T15:27:08.167Z,12.44
2023-01-11T15:29:42.557Z,12.43
2023-01-11T15:32:20.640Z,12.25
2023-01-11T15:34:49.997Z,12.39
2023-01-11T15:37:45.914Z,12.37
2023-01-11T15:40:22.014Z,12.15
2023-01-11T15:43:19.731Z,11.88
2023-01-11T15:46:32.270Z,12.25
2023-01-11T15:49:40.664Z,12.17
2023-01-11T15:52:41.791Z,12.13
2023-01-11T15:55:48.323Z,12.08
2023-01-11T15:58:38.770Z,11.41
2023-01-11T16:01:22.104Z,12.07
2023-01-11T16:04:03.849Z,11.36
2023-01-11T16:06:43.086Z,12.04
2023-01-11T16:09:33.461Z,12.02
2023-01-11T16:12:18.891Z,11.82
2023-01-11T16:15:12.699Z,11.99
2023-01-11T16:17:42.172Z,11.97
2023-01-11T16:20:24.831Z,11.98
2023-01-11T16:22:56.289Z,11.95
2023-01-11T16:25:30.236Z,11.73
2023-01-11T16:28:01.887Z,11.01
2023-01-11T16:30:31.107Z,11.78
2023-01-11T16:33:15.590Z,11.76
2023-01-11T16:35:44.128Z,11.66
2023-01-11T16:38:18.197Z,11.71
2023-01-11T16:40:50.974Z,11.67
2023-01-11T16:43:25.217Z,11.65
2023-01-11T16:45:55.334Z,11.64
2023-01-11T16:48:25.676Z,11.63
2023-01-11T16:51:01.938Z,11.48
2023-01-11T16:53:32.000Z,11.54
2023-01-11T16:56:05.646Z,11.56
2023-01-11T16:58:37.286Z,11.52
2023-01-11T17:01:08.442Z,11.30
2023-01-11T17:03:38.711Z,11.32
2023-01-11T17:06:26.041Z,11.45
2023-01-11T17:08:56.559Z,11.43
2023-01-11T17:11:32.896Z,11.41
2023-01-11T17:14:20.084Z,11.38
2023-01-11T17:16:50.867Z,11.33
2023-01-11T17:19:21.470Z,11.32
2023-01-11T17:21:52.601Z,11.39
2023-01-11T17:24:25.954Z,11.41
2023-01-11T17:26:57.901Z,11.40
2023-01-11T17:29:31.628Z,11.43
2023-01-11T17:32:02.915Z,11.47
2023-01-11T17:34:34.361Z,11.48
2023-01-11T17:37:03.676Z,11.49
2023-01-11T17:39:34.509Z,11.48
2023-01-11T17:42:23.653Z,11.28
2023-01-11T17:45:14.316Z,11.15
2023-01-11T17:47:45.729Z,11.05
2023-01-11T17:50:30.211Z,10.95
2023-01-11T17:53:07.753Z,11.18
2023-01-11T17:55:36.265Z,11.10
2023-01-11T17:58:19.788Z,10.98
2023-01-11T18:01:25.698Z,9.99
2023-01-11T18:03:57.183Z,10.84
2023-01-11T18:06:32.493Z,10.89
2023-01-11T18:09:02.617Z,10.86
2023-01-11T18:11:33.631Z,10.89
2023-01-11T18:14:04.952Z,10.92
2023-01-11T18:16:35.321Z,10.92
2023-01-11T18:19:24.650Z,10.93
2023-01-11T18:21:54.114Z,10.93
2023-01-11T18:24:34.086Z,10.95
2023-01-11T18:27:24.687Z,10.94
2023-01-11T18:29:54.125Z,11.84
2023-01-11T18:32:23.959Z,11.28
2023-01-11T18:34:55.354Z,11.20
2023-01-11T18:37:23.953Z,11.13
2023-01-11T18:39:53.689Z,11.07
2023-01-11T18:42:27.997Z,10.99
2023-01-11T18:44:56.555Z,10.89
2023-01-11T18:47:29.571Z,10.81
2023-01-11T18:49:58.622Z,10.79
2023-01-11T18:52:28.015Z,10.44
2023-01-11T18:54:57.123Z,10.74
2023-01-11T18:57:25.937Z,10.72
2023-01-11T18:59:54.421Z,10.71
2023-01-11T19:02:27.087Z,10.53
2023-01-11T19:04:56.764Z,10.59
2023-01-11T19:07:26.398Z,10.47
2023-01-11T19:09:55.951Z,10.39
2023-01-11T19:12:24.686Z,10.33
2023-01-11T19:14:53.057Z,10.28
2023-01-11T19:17:21.619Z,10.79
2023-01-11T19:19:51.357Z,10.35
2023-01-11T19:22:23.297Z,10.08
2023-01-11T19:24:54.620Z,9.90
2023-01-11T19:27:23.170Z,9.74
2023-01-11T19:29:52.814Z,9.61
2023-01-11T19:32:23.822Z,9.55
2023-01-11T19:34:58.009Z,9.44
2023-01-11T19:37:27.185Z,9.29
2023-01-11T19:39:55.549Z,9.21
2023-01-11T19:42:24.455Z,9.06
2023-01-11T19:44:53.528Z,8.92
2023-01-11T19:47:22.078Z,8.82
2023-01-11T19:49:50.414Z,8.79
2023-01-11T19:52:21.816Z,8.74
2023-01-11T19:54:51.313Z,8.68
2023-01-11T19:57:21.458Z,8.50
2023-01-11T19:59:51.098Z,8.64
2023-01-11T20:02:21.413Z,8.60
2023-01-11T20:04:49.878Z,8.54
2023-01-11T20:07:20.461Z,8.39
2023-01-11T20:09:48.847Z,8.27
2023-01-11T20:12:17.237Z,8.20
2023-01-11T20:14:46.406Z,8.16
2023-01-11T20:17:19.261Z,8.04
2023-01-11T20:19:54.467Z,7.80
2023-01-11T20:22:25.461Z,7.98
2023-01-11T20:24:53.797Z,7.88
2023-01-11T20:27:22.126Z,7.67
2023-01-11T20:29:50.458Z,7.47
2023-01-11T20:32:39.825Z,7.53
2023-01-11T20:35:08.222Z,7.46
2023-01-11T20:37:38.027Z,7.37
2023-01-11T20:40:07.569Z,7.18
2023-01-11T20:42:35.948Z,7.05
2023-01-11T20:45:04.380Z,6.98
2023-01-11T20:47:32.898Z,6.82
2023-01-11T20:50:01.284Z,6.71
2023-01-11T20:52:29.548Z,6.63
2023-01-11T20:54:59.371Z,6.60
2023-01-11T20:57:29.506Z,6.51
2023-01-11T20:59:57.949Z,6.44
2023-01-11T21:02:26.277Z,6.44
2023-01-11T21:04:54.733Z,6.43
2023-01-11T21:07:23.072Z,6.44
2023-01-11T21:09:51.484Z,6.47
2023-01-11T21:12:21.280Z,6.47
2023-01-11T21:14:49.679Z,6.52
2023-01-11T21:17:19.385Z,6.54
2023-01-11T21:19:47.722Z,6.52
2023-01-11T21:22:16.210Z,6.45
2023-01-11T21:24:44.575Z,6.38
2023-01-11T21:27:12.923Z,6.35
2023-01-11T21:29:42.681Z,6.34
2023-01-11T21:32:11.031Z,6.33
2023-01-11T21:34:40.375Z,6.28
2023-01-11T21:37:08.653Z,6.21
2023-01-11T21:39:37.008Z,6.09
2023-01-11T21:42:05.602Z,5.99
2023-01-11T21:44:34.873Z,5.90
2023-01-11T21:47:07.476Z,5.02
2023-01-11T21:49:35.832Z,5.77
2023-01-11T21:52:04.216Z,5.69
2023-01-11T21:54:32.616Z,5.63
2023-01-11T21:57:00.972Z,5.52
2023-01-11T21:59:30.196Z,5.40
2023-01-11T22:01:58.465Z,5.39
2023-01-11T22:04:28.251Z,5.44
2023-01-11T22:06:58.610Z,5.50
2023-01-11T22:09:28.155Z,5.46
2023-01-11T22:11:56.670Z,5.56
2023-01-11T22:14:25.477Z,5.21
2023-01-11T22:16:54.016Z,5.36
2023-01-11T22:19:22.447Z,5.24
2023-01-11T22:21:52.164Z,5.17
2023-01-11T22:24:20.935Z,5.08
2023-01-11T22:26:49.229Z,5.02
2023-01-11T22:29:20.036Z,5.05
2023-01-11T22:31:51.169Z,4.85
2023-01-11T22:34:20.542Z,5.02
2023-01-11T22:36:49.392Z,4.93
2023-01-11T22:39:20.287Z,4.89
2023-01-11T22:41:49.699Z,4.89
2023-01-11T22:44:18.286Z,4.81
2023-01-11T22:46:46.752Z,4.83
2023-01-11T22:49:15.477Z,4.77
2023-01-11T22:51:45.176Z,4.72
2023-01-11T22:54:13.885Z,4.63
2023-01-11T22:56:43.718Z,4.60
2023-01-11T22:59:12.380Z,4.51
2023-01-11T23:01:47.864Z,4.40
2023-01-11T23:04:16.315Z,4.34
2023-01-11T23:06:45.191Z,4.31
2023-01-11T23:09:16.696Z,4.09
2023-01-11T23:12:05.345Z,4.27
2023-01-11T23:14:34.621Z,4.17
2023-01-11T23:17:06.461Z,4.14
2023-01-11T23:19:35.970Z,4.15
2023-01-11T23:22:04.785Z,4.19
2023-01-11T23:24:33.153Z,4.24
2023-01-11T23:27:02.968Z,4.19
2023-01-11T23:29:31.584Z,4.12
2023-01-11T23:32:00.082Z,4.06
2023-01-11T23:34:28.704Z,4.13
2023-01-11T23:36:57.082Z,4.10
2023-01-11T23:39:25.472Z,4.05
2023-01-11T23:42:12.267Z,4.02
2023-01-11T23:44:42.103Z,3.98
2023-01-11T23:47:29.921Z,4.00
2023-01-11T23:50:00.971Z,3.91
2023-01-11T23:52:31.579Z,3.89
2023-01-11T23:55:00.660Z,3.91
2023-01-11T23:57:29.112Z,3.90
2023-01-11T23:59:58.864Z,3.82
